McClellanville, SC (29458)

3:10 AM EDT on September 03, 2014 (GMT -0400)
RAWS WAMBAW SC US | Change Station
CLOSE
Current Station
Personal Weather Station
Location: Awendaw, SC
Elevation: 19 ft
Nearby Weather Stations

Elev 19 ft 32.97 °N, 79.67 °W | Updated 47 minutes ago

Partly Cloudy
Partly Cloudy
74 °F
Feels Like 71 °F
N
0
Wind Variable Wind from North
Gusts 0.0 mph

Today
High -- | Low -- °F
--% Chance of Precip.
Yesterday
High -- | Low -- °F
Precip. -- in
6:53 AM 7:40 PM
First Quarter, 59% visible
Pressure 30.04 in
Visibility 10.0 miles
Clouds Scattered Clouds 1900 ft
Heat Index 71 °F
Dew Point 73 °F
Humidity 96%
Rainfall 0.00 in
Snow Depth Not available.
UV 0 out of 12
Pollen 9.00 out of 12
Air Quality Not available.
Flu Activity Not available.
METAR KGGE 030655Z AUTO 27004KT 10SM SCT019 24/24 A3004 RMK AO2

More Conditions Fewer Conditions

Pressure 30.04 in
Visibility 10.0 miles
Clouds Scattered Clouds 1900 ft
Heat Index 71 °F
Dew Point 73 °F
Humidity 96%
Rainfall 0.00 in
Snow Depth Not available.
UV 0 out of 12
Pollen 9.00 out of 12
Air Quality Not available.
Flu Activity Not available.
METAR KGGE 030655Z AUTO 27004KT 10SM SCT019 24/24 A3004 RMK AO2

More Conditions Fewer Conditions

10-Day Weather Forecast

Almanac

Astronomy

Sep. 03, 2014 Rise Set
Actual Time 6:53 AM EDT 7:40 PM EDT
Civil Twilight 6:28 AM EDT 8:05 PM EDT
Nautical Twilight 5:58 AM EDT 8:35 PM EDT
Astronomical Twilight 5:28 AM EDT 9:05 PM EDT
Moon 3:10 PM EDT 12:55 AM EDT
Length of Visible Light 13h 36m
Length of Day
12h 46m
Tomorrow will be 1m 58s shorter.
First Quarter, 59% of the Moon is Illuminated
Today
First Quarter
Sep 8
Full
Sep 15
Last Quarter
Sep 24
New
Oct 1
First Quarter

Today's Extremes

State Highs State Lows

Community

WunderPhotos

Upload Photos

1,749,888 photos uploaded!

Nearby

Air Quality

  Air Quality AQ Index Pollutant
Yesterday Moderate
PM2.5
Yesterday Good
OZONE
Wednesday Good
OZONE

Snow Depth

Station Depth Elevation
No new snow has been reported.

Earthquake Activity

City Distance Mag. Time & Date
No recent earthquake activity has been reported nearby.
Minimum magnitude displayed is 2.5.

Coastal Water Temperatures

Place Temperature
No Stations Reporting

Nearby Weather Stations